sensor_id;sensor_type;location;lat;lon;timestamp;P1;durP1;ratioP1;P2;durP2;ratioP2
8819;SDS011;4446;50.876;4.736;2023-04-21T00:00:02;7.80;;;5.30;;
8819;SDS011;4446;50.876;4.736;2023-04-21T00:02:32;8.52;;;5.43;;
8819;SDS011;4446;50.876;4.736;2023-04-21T00:05:04;8.02;;;5.53;;
8819;SDS011;4446;50.876;4.736;2023-04-21T00:07:33;9.27;;;5.50;;
8819;SDS011;4446;50.876;4.736;2023-04-21T00:10:02;9.90;;;6.38;;
8819;SDS011;4446;50.876;4.736;2023-04-21T00:12:31;10.18;;;5.78;;
8819;SDS011;4446;50.876;4.736;2023-04-21T00:14:58;10.93;;;6.28;;
8819;SDS011;4446;50.876;4.736;2023-04-21T00:17:25;11.52;;;6.95;;
8819;SDS011;4446;50.876;4.736;2023-04-21T00:19:52;10.80;;;6.95;;
8819;SDS011;4446;50.876;4.736;2023-04-21T00:22:19;10.77;;;7.30;;
8819;SDS011;4446;50.876;4.736;2023-04-21T00:24:46;12.10;;;7.20;;
8819;SDS011;4446;50.876;4.736;2023-04-21T00:27:13;11.10;;;6.75;;
8819;SDS011;4446;50.876;4.736;2023-04-21T00:29:42;11.25;;;6.55;;
8819;SDS011;4446;50.876;4.736;2023-04-21T00:32:09;10.95;;;6.72;;
8819;SDS011;4446;50.876;4.736;2023-04-21T00:34:36;11.88;;;7.32;;
8819;SDS011;4446;50.876;4.736;2023-04-21T00:37:03;13.35;;;7.95;;
8819;SDS011;4446;50.876;4.736;2023-04-21T00:39:30;12.45;;;7.57;;
8819;SDS011;4446;50.876;4.736;2023-04-21T00:41:57;13.95;;;8.32;;
8819;SDS011;4446;50.876;4.736;2023-04-21T00:44:24;10.82;;;7.07;;
8819;SDS011;4446;50.876;4.736;2023-04-21T00:46:52;12.90;;;7.80;;
8819;SDS011;4446;50.876;4.736;2023-04-21T00:49:19;12.95;;;7.25;;
8819;SDS011;4446;50.876;4.736;2023-04-21T00:51:46;14.32;;;8.50;;
8819;SDS011;4446;50.876;4.736;2023-04-21T00:54:13;13.10;;;7.80;;
8819;SDS011;4446;50.876;4.736;2023-04-21T00:56:40;15.70;;;8.80;;
8819;SDS011;4446;50.876;4.736;2023-04-21T00:59:07;14.80;;;9.10;;
8819;SDS011;4446;50.876;4.736;2023-04-21T01:01:34;12.82;;;7.97;;
8819;SDS011;4446;50.876;4.736;2023-04-21T01:04:04;15.85;;;8.73;;
8819;SDS011;4446;50.876;4.736;2023-04-21T01:06:32;14.13;;;8.38;;
8819;SDS011;4446;50.876;4.736;2023-04-21T01:08:59;15.32;;;9.00;;
8819;SDS011;4446;50.876;4.736;2023-04-21T01:11:28;14.80;;;8.95;;
8819;SDS011;4446;50.876;4.736;2023-04-21T01:13:55;13.63;;;8.45;;
8819;SDS011;4446;50.876;4.736;2023-04-21T01:16:22;15.45;;;9.07;;
8819;SDS011;4446;50.876;4.736;2023-04-21T01:18:51;18.38;;;10.57;;
8819;SDS011;4446;50.876;4.736;2023-04-21T01:21:19;17.15;;;10.02;;
8819;SDS011;4446;50.876;4.736;2023-04-21T01:23:49;18.92;;;10.50;;
8819;SDS011;4446;50.876;4.736;2023-04-21T01:26:16;19.50;;;9.88;;
8819;SDS011;4446;50.876;4.736;2023-04-21T01:28:44;16.88;;;9.30;;
8819;SDS011;4446;50.876;4.736;2023-04-21T01:31:11;17.60;;;10.05;;
8819;SDS011;4446;50.876;4.736;2023-04-21T01:33:39;17.80;;;9.65;;
8819;SDS011;4446;50.876;4.736;2023-04-21T01:36:07;21.13;;;10.02;;
8819;SDS011;4446;50.876;4.736;2023-04-21T01:38:36;18.17;;;10.30;;
8819;SDS011;4446;50.876;4.736;2023-04-21T01:41:05;18.48;;;9.85;;
8819;SDS011;4446;50.876;4.736;2023-04-21T01:43:32;17.92;;;9.68;;
8819;SDS011;4446;50.876;4.736;2023-04-21T01:46:00;19.50;;;10.90;;
8819;SDS011;4446;50.876;4.736;2023-04-21T01:48:27;17.60;;;10.30;;
8819;SDS011;4446;50.876;4.736;2023-04-21T01:50:54;17.70;;;10.00;;
8819;SDS011;4446;50.876;4.736;2023-04-21T01:53:21;21.70;;;11.30;;
8819;SDS011;4446;50.876;4.736;2023-04-21T01:55:48;20.40;;;11.02;;
8819;SDS011;4446;50.876;4.736;2023-04-21T01:58:17;20.50;;;10.55;;
8819;SDS011;4446;50.876;4.736;2023-04-21T02:00:44;19.73;;;10.10;;
8819;SDS011;4446;50.876;4.736;2023-04-21T02:03:11;18.10;;;10.23;;
8819;SDS011;4446;50.876;4.736;2023-04-21T02:05:38;17.30;;;9.48;;
8819;SDS011;4446;50.876;4.736;2023-04-21T02:08:04;21.98;;;11.25;;
8819;SDS011;4446;50.876;4.736;2023-04-21T02:10:32;20.33;;;10.45;;
8819;SDS011;4446;50.876;4.736;2023-04-21T02:12:59;19.75;;;10.57;;
8819;SDS011;4446;50.876;4.736;2023-04-21T02:15:27;19.10;;;10.88;;
8819;SDS011;4446;50.876;4.736;2023-04-21T02:17:54;19.23;;;10.02;;
8819;SDS011;4446;50.876;4.736;2023-04-21T02:20:21;19.35;;;11.23;;
8819;SDS011;4446;50.876;4.736;2023-04-21T02:22:48;19.05;;;10.95;;
8819;SDS011;4446;50.876;4.736;2023-04-21T02:25:15;20.70;;;11.48;;
8819;SDS011;4446;50.876;4.736;2023-04-21T02:27:42;19.63;;;10.55;;
8819;SDS011;4446;50.876;4.736;2023-04-21T02:30:09;21.30;;;11.43;;
8819;SDS011;4446;50.876;4.736;2023-04-21T02:32:38;23.27;;;12.30;;
8819;SDS011;4446;50.876;4.736;2023-04-21T02:35:05;21.67;;;10.63;;
8819;SDS011;4446;50.876;4.736;2023-04-21T02:37:33;23.63;;;12.50;;
8819;SDS011;4446;50.876;4.736;2023-04-21T02:40:00;24.90;;;12.15;;
8819;SDS011;4446;50.876;4.736;2023-04-21T02:42:27;23.70;;;11.95;;
8819;SDS011;4446;50.876;4.736;2023-04-21T02:44:54;24.10;;;11.70;;
8819;SDS011;4446;50.876;4.736;2023-04-21T02:47:21;22.63;;;11.45;;
8819;SDS011;4446;50.876;4.736;2023-04-21T02:49:49;20.30;;;10.70;;
8819;SDS011;4446;50.876;4.736;2023-04-21T02:52:16;23.17;;;11.40;;
8819;SDS011;4446;50.876;4.736;2023-04-21T02:54:43;20.23;;;10.60;;
8819;SDS011;4446;50.876;4.736;2023-04-21T02:57:10;21.48;;;11.18;;
8819;SDS011;4446;50.876;4.736;2023-04-21T02:59:37;24.70;;;10.77;;
8819;SDS011;4446;50.876;4.736;2023-04-21T03:02:04;19.55;;;10.95;;
8819;SDS011;4446;50.876;4.736;2023-04-21T03:04:31;20.75;;;10.90;;
8819;SDS011;4446;50.876;4.736;2023-04-21T03:06:59;21.45;;;11.70;;
8819;SDS011;4446;50.876;4.736;2023-04-21T03:09:26;20.75;;;10.77;;
8819;SDS011;4446;50.876;4.736;2023-04-21T03:11:53;22.10;;;11.80;;
8819;SDS011;4446;50.876;4.736;2023-04-21T03:14:20;24.90;;;12.32;;
8819;SDS011;4446;50.876;4.736;2023-04-21T03:16:47;20.70;;;11.90;;
8819;SDS011;4446;50.876;4.736;2023-04-21T03:19:14;21.85;;;11.82;;
8819;SDS011;4446;50.876;4.736;2023-04-21T03:21:41;24.13;;;11.57;;
8819;SDS011;4446;50.876;4.736;2023-04-21T03:24:10;21.05;;;11.32;;
8819;SDS011;4446;50.876;4.736;2023-04-21T03:26:37;23.13;;;11.55;;
8819;SDS011;4446;50.876;4.736;2023-04-21T03:29:04;21.20;;;11.07;;
8819;SDS011;4446;50.876;4.736;2023-04-21T03:31:31;24.73;;;11.88;;
8819;SDS011;4446;50.876;4.736;2023-04-21T03:33:58;23.35;;;10.95;;
8819;SDS011;4446;50.876;4.736;2023-04-21T03:36:25;24.10;;;12.07;;
8819;SDS011;4446;50.876;4.736;2023-04-21T03:38:52;23.65;;;11.50;;
8819;SDS011;4446;50.876;4.736;2023-04-21T03:41:21;23.05;;;11.70;;
8819;SDS011;4446;50.876;4.736;2023-04-21T03:43:49;23.13;;;11.30;;
8819;SDS011;4446;50.876;4.736;2023-04-21T03:46:16;21.27;;;10.35;;
8819;SDS011;4446;50.876;4.736;2023-04-21T03:48:45;23.05;;;12.25;;
8819;SDS011;4446;50.876;4.736;2023-04-21T03:51:12;20.58;;;11.07;;
8819;SDS011;4446;50.876;4.736;2023-04-21T03:53:39;20.45;;;10.20;;
8819;SDS011;4446;50.876;4.736;2023-04-21T03:56:06;22.48;;;10.88;;
8819;SDS011;4446;50.876;4.736;2023-04-21T03:58:35;21.67;;;10.82;;
8819;SDS011;4446;50.876;4.736;2023-04-21T04:01:03;19.25;;;9.60;;
8819;SDS011;4446;50.876;4.736;2023-04-21T04:03:31;21.35;;;11.30;;
8819;SDS011;4446;50.876;4.736;2023-04-21T04:05:58;21.02;;;10.60;;
8819;SDS011;4446;50.876;4.736;2023-04-21T04:08:27;19.73;;;9.75;;
8819;SDS011;4446;50.876;4.736;2023-04-21T04:10:53;19.85;;;10.13;;
8819;SDS011;4446;50.876;4.736;2023-04-21T04:13:21;20.13;;;9.98;;
8819;SDS011;4446;50.876;4.736;2023-04-21T04:15:50;20.95;;;10.50;;
8819;SDS011;4446;50.876;4.736;2023-04-21T04:18:17;19.85;;;10.18;;
8819;SDS011;4446;50.876;4.736;2023-04-21T04:20:44;18.92;;;10.35;;
8819;SDS011;4446;50.876;4.736;2023-04-21T04:23:11;18.52;;;9.85;;
8819;SDS011;4446;50.876;4.736;2023-04-21T04:25:38;18.85;;;9.48;;
8819;SDS011;4446;50.876;4.736;2023-04-21T04:28:05;18.90;;;10.32;;
8819;SDS011;4446;50.876;4.736;2023-04-21T04:30:33;20.98;;;10.38;;
8819;SDS011;4446;50.876;4.736;2023-04-21T04:33:02;19.17;;;10.20;;
8819;SDS011;4446;50.876;4.736;2023-04-21T04:35:29;21.63;;;10.38;;
8819;SDS011;4446;50.876;4.736;2023-04-21T04:37:56;20.70;;;10.00;;
8819;SDS011;4446;50.876;4.736;2023-04-21T04:40:23;19.40;;;9.85;;
8819;SDS011;4446;50.876;4.736;2023-04-21T04:42:50;16.48;;;9.18;;
8819;SDS011;4446;50.876;4.736;2023-04-21T04:45:19;21.23;;;10.48;;
8819;SDS011;4446;50.876;4.736;2023-04-21T04:47:47;19.67;;;10.02;;
8819;SDS011;4446;50.876;4.736;2023-04-21T04:50:15;20.95;;;10.85;;
8819;SDS011;4446;50.876;4.736;2023-04-21T04:52:42;18.75;;;10.27;;
8819;SDS011;4446;50.876;4.736;2023-04-21T04:55:11;19.20;;;9.95;;
8819;SDS011;4446;50.876;4.736;2023-04-21T04:57:39;21.02;;;10.15;;
8819;SDS011;4446;50.876;4.736;2023-04-21T05:00:07;19.17;;;9.73;;
8819;SDS011;4446;50.876;4.736;2023-04-21T05:02:35;19.40;;;9.57;;
8819;SDS011;4446;50.876;4.736;2023-04-21T05:05:03;17.80;;;9.73;;
8819;SDS011;4446;50.876;4.736;2023-04-21T05:07:32;19.13;;;9.80;;
8819;SDS011;4446;50.876;4.736;2023-04-21T05:09:59;20.45;;;9.95;;
8819;SDS011;4446;50.876;4.736;2023-04-21T05:12:28;21.83;;;10.20;;
8819;SDS011;4446;50.876;4.736;2023-04-21T05:14:56;21.83;;;10.40;;
8819;SDS011;4446;50.876;4.736;2023-04-21T05:17:23;23.88;;;10.30;;
8819;SDS011;4446;50.876;4.736;2023-04-21T05:19:50;22.38;;;10.18;;
8819;SDS011;4446;50.876;4.736;2023-04-21T05:22:17;19.63;;;9.68;;
8819;SDS011;4446;50.876;4.736;2023-04-21T05:24:45;21.42;;;10.30;;
8819;SDS011;4446;50.876;4.736;2023-04-21T05:27:12;19.02;;;9.50;;
8819;SDS011;4446;50.876;4.736;2023-04-21T05:29:39;18.35;;;9.63;;
8819;SDS011;4446;50.876;4.736;2023-04-21T05:32:06;22.60;;;11.63;;
8819;SDS011;4446;50.876;4.736;2023-04-21T05:34:36;21.23;;;10.15;;
8819;SDS011;4446;50.876;4.736;2023-04-21T05:37:03;19.33;;;9.40;;
8819;SDS011;4446;50.876;4.736;2023-04-21T05:39:30;21.58;;;10.77;;
8819;SDS011;4446;50.876;4.736;2023-04-21T05:41:59;19.33;;;10.45;;
8819;SDS011;4446;50.876;4.736;2023-04-21T05:44:26;19.45;;;9.50;;
8819;SDS011;4446;50.876;4.736;2023-04-21T05:46:53;22.30;;;10.15;;
8819;SDS011;4446;50.876;4.736;2023-04-21T05:49:20;23.27;;;10.10;;
8819;SDS011;4446;50.876;4.736;2023-04-21T05:51:47;20.60;;;10.07;;
8819;SDS011;4446;50.876;4.736;2023-04-21T05:54:14;20.45;;;10.60;;
8819;SDS011;4446;50.876;4.736;2023-04-21T05:56:41;20.23;;;11.02;;
8819;SDS011;4446;50.876;4.736;2023-04-21T05:59:10;19.60;;;10.13;;
8819;SDS011;4446;50.876;4.736;2023-04-21T06:01:37;19.67;;;10.40;;
8819;SDS011;4446;50.876;4.736;2023-04-21T06:04:04;23.13;;;10.10;;
8819;SDS011;4446;50.876;4.736;2023-04-21T06:06:31;23.17;;;11.02;;
8819;SDS011;4446;50.876;4.736;2023-04-21T06:08:58;21.23;;;10.68;;
8819;SDS011;4446;50.876;4.736;2023-04-21T06:11:25;22.73;;;10.95;;
8819;SDS011;4446;50.876;4.736;2023-04-21T06:13:52;21.40;;;10.32;;
8819;SDS011;4446;50.876;4.736;2023-04-21T06:16:23;25.08;;;10.93;;
8819;SDS011;4446;50.876;4.736;2023-04-21T06:18:50;24.35;;;10.80;;
8819;SDS011;4446;50.876;4.736;2023-04-21T06:21:17;24.30;;;10.77;;
8819;SDS011;4446;50.876;4.736;2023-04-21T06:23:44;22.25;;;10.88;;
8819;SDS011;4446;50.876;4.736;2023-04-21T06:26:11;24.73;;;11.32;;
8819;SDS011;4446;50.876;4.736;2023-04-21T06:28:38;20.48;;;10.07;;
8819;SDS011;4446;50.876;4.736;2023-04-21T06:31:06;22.23;;;10.63;;
8819;SDS011;4446;50.876;4.736;2023-04-21T06:33:35;22.58;;;10.85;;
8819;SDS011;4446;50.876;4.736;2023-04-21T06:36:02;22.98;;;11.88;;
8819;SDS011;4446;50.876;4.736;2023-04-21T06:38:29;23.60;;;10.65;;
8819;SDS011;4446;50.876;4.736;2023-04-21T06:40:56;25.45;;;11.88;;
8819;SDS011;4446;50.876;4.736;2023-04-21T06:43:24;19.77;;;9.77;;
8819;SDS011;4446;50.876;4.736;2023-04-21T06:45:51;25.98;;;11.52;;
8819;SDS011;4446;50.876;4.736;2023-04-21T06:48:17;19.40;;;10.10;;
8819;SDS011;4446;50.876;4.736;2023-04-21T06:50:46;22.10;;;10.45;;
8819;SDS011;4446;50.876;4.736;2023-04-21T06:53:13;22.48;;;10.48;;
8819;SDS011;4446;50.876;4.736;2023-04-21T06:55:42;23.95;;;10.52;;
8819;SDS011;4446;50.876;4.736;2023-04-21T06:58:09;23.02;;;10.52;;
8819;SDS011;4446;50.876;4.736;2023-04-21T07:00:36;17.85;;;9.70;;
8819;SDS011;4446;50.876;4.736;2023-04-21T07:03:03;20.35;;;9.75;;
8819;SDS011;4446;50.876;4.736;2023-04-21T07:05:30;21.13;;;10.13;;
8819;SDS011;4446;50.876;4.736;2023-04-21T07:07:59;20.23;;;10.18;;
8819;SDS011;4446;50.876;4.736;2023-04-21T07:10:26;16.77;;;8.93;;
8819;SDS011;4446;50.876;4.736;2023-04-21T07:12:53;19.42;;;9.57;;
8819;SDS011;4446;50.876;4.736;2023-04-21T07:15:20;18.20;;;8.88;;
8819;SDS011;4446;50.876;4.736;2023-04-21T07:17:47;15.95;;;8.25;;
8819;SDS011;4446;50.876;4.736;2023-04-21T07:20:15;16.17;;;9.10;;
8819;SDS011;4446;50.876;4.736;2023-04-21T07:22:42;16.88;;;8.32;;
8819;SDS011;4446;50.876;4.736;2023-04-21T07:25:11;14.60;;;8.07;;
8819;SDS011;4446;50.876;4.736;2023-04-21T07:27:38;16.60;;;8.25;;
8819;SDS011;4446;50.876;4.736;2023-04-21T07:30:05;15.25;;;8.10;;
8819;SDS011;4446;50.876;4.736;2023-04-21T07:32:33;14.88;;;8.25;;
8819;SDS011;4446;50.876;4.736;2023-04-21T07:35:02;15.43;;;8.15;;
8819;SDS011;4446;50.876;4.736;2023-04-21T07:37:30;13.10;;;7.57;;
8819;SDS011;4446;50.876;4.736;2023-04-21T07:39:57;16.88;;;8.45;;
8819;SDS011;4446;50.876;4.736;2023-04-21T07:42:25;14.43;;;7.65;;
8819;SDS011;4446;50.876;4.736;2023-04-21T07:44:52;13.20;;;6.55;;
8819;SDS011;4446;50.876;4.736;2023-04-21T07:47:20;13.98;;;7.90;;
8819;SDS011;4446;50.876;4.736;2023-04-21T07:49:47;11.10;;;6.60;;
8819;SDS011;4446;50.876;4.736;2023-04-21T07:52:14;13.32;;;7.28;;
8819;SDS011;4446;50.876;4.736;2023-04-21T07:54:41;13.27;;;6.50;;
8819;SDS011;4446;50.876;4.736;2023-04-21T07:57:09;12.98;;;7.05;;
8819;SDS011;4446;50.876;4.736;2023-04-21T07:59:37;10.63;;;5.90;;
8819;SDS011;4446;50.876;4.736;2023-04-21T08:02:04;12.77;;;6.15;;
8819;SDS011;4446;50.876;4.736;2023-04-21T08:04:31;11.43;;;6.90;;
8819;SDS011;4446;50.876;4.736;2023-04-21T08:06:58;10.63;;;6.63;;
8819;SDS011;4446;50.876;4.736;2023-04-21T08:09:26;11.77;;;7.13;;
8819;SDS011;4446;50.876;4.736;2023-04-21T08:11:53;10.15;;;6.13;;
8819;SDS011;4446;50.876;4.736;2023-04-21T08:14:21;13.55;;;6.97;;
8819;SDS011;4446;50.876;4.736;2023-04-21T08:16:49;13.13;;;6.78;;
8819;SDS011;4446;50.876;4.736;2023-04-21T08:19:16;11.05;;;6.63;;
8819;SDS011;4446;50.876;4.736;2023-04-21T08:21:43;12.80;;;6.90;;
8819;SDS011;4446;50.876;4.736;2023-04-21T08:24:10;11.93;;;6.72;;
8819;SDS011;4446;50.876;4.736;2023-04-21T08:26:37;10.80;;;6.78;;
8819;SDS011;4446;50.876;4.736;2023-04-21T08:29:04;9.80;;;5.80;;
8819;SDS011;4446;50.876;4.736;2023-04-21T08:31:34;9.93;;;6.47;;
8819;SDS011;4446;50.876;4.736;2023-04-21T08:34:02;14.02;;;7.65;;
8819;SDS011;4446;50.876;4.736;2023-04-21T08:36:31;11.10;;;6.50;;
8819;SDS011;4446;50.876;4.736;2023-04-21T08:38:58;9.20;;;5.72;;
8819;SDS011;4446;50.876;4.736;2023-04-21T08:41:25;10.77;;;6.22;;
8819;SDS011;4446;50.876;4.736;2023-04-21T08:43:52;9.52;;;6.10;;
8819;SDS011;4446;50.876;4.736;2023-04-21T08:46:19;9.85;;;5.93;;
8819;SDS011;4446;50.876;4.736;2023-04-21T08:48:47;12.60;;;6.60;;
8819;SDS011;4446;50.876;4.736;2023-04-21T08:51:17;9.95;;;5.88;;
8819;SDS011;4446;50.876;4.736;2023-04-21T08:53:47;8.77;;;5.57;;
8819;SDS011;4446;50.876;4.736;2023-04-21T08:56:14;9.80;;;6.45;;
8819;SDS011;4446;50.876;4.736;2023-04-21T08:58:41;11.73;;;5.78;;
8819;SDS011;4446;50.876;4.736;2023-04-21T09:01:08;10.50;;;5.38;;
8819;SDS011;4446;50.876;4.736;2023-04-21T09:03:36;9.30;;;5.50;;
8819;SDS011;4446;50.876;4.736;2023-04-21T09:06:03;8.68;;;5.68;;
8819;SDS011;4446;50.876;4.736;2023-04-21T09:08:33;9.75;;;6.82;;
8819;SDS011;4446;50.876;4.736;2023-04-21T09:11:02;9.93;;;5.97;;
8819;SDS011;4446;50.876;4.736;2023-04-21T09:13:30;8.90;;;6.07;;
8819;SDS011;4446;50.876;4.736;2023-04-21T09:15:58;11.15;;;6.63;;
8819;SDS011;4446;50.876;4.736;2023-04-21T09:18:27;10.15;;;6.72;;
8819;SDS011;4446;50.876;4.736;2023-04-21T09:21:06;12.57;;;6.90;;
8819;SDS011;4446;50.876;4.736;2023-04-21T09:23:42;9.77;;;6.35;;
8819;SDS011;4446;50.876;4.736;2023-04-21T09:26:11;11.13;;;5.88;;
8819;SDS011;4446;50.876;4.736;2023-04-21T09:28:41;8.55;;;5.47;;
8819;SDS011;4446;50.876;4.736;2023-04-21T09:31:12;8.68;;;5.43;;
8819;SDS011;4446;50.876;4.736;2023-04-21T09:33:47;8.20;;;5.70;;
8819;SDS011;4446;50.876;4.736;2023-04-21T09:36:18;8.80;;;5.82;;
8819;SDS011;4446;50.876;4.736;2023-04-21T09:38:49;8.82;;;5.82;;
8819;SDS011;4446;50.876;4.736;2023-04-21T09:41:21;8.02;;;5.28;;
8819;SDS011;4446;50.876;4.736;2023-04-21T09:43:48;9.15;;;5.68;;
8819;SDS011;4446;50.876;4.736;2023-04-21T09:46:15;8.70;;;6.50;;
8819;SDS011;4446;50.876;4.736;2023-04-21T09:48:43;9.05;;;6.18;;
8819;SDS011;4446;50.876;4.736;2023-04-21T09:51:11;9.05;;;6.30;;
8819;SDS011;4446;50.876;4.736;2023-04-21T09:53:39;10.13;;;5.70;;
8819;SDS011;4446;50.876;4.736;2023-04-21T09:56:09;8.73;;;6.05;;
8819;SDS011;4446;50.876;4.736;2023-04-21T09:58:39;9.00;;;6.07;;
8819;SDS011;4446;50.876;4.736;2023-04-21T10:01:09;8.93;;;6.22;;
8819;SDS011;4446;50.876;4.736;2023-04-21T10:03:38;7.80;;;5.10;;
8819;SDS011;4446;50.876;4.736;2023-04-21T10:06:06;9.25;;;5.45;;
8819;SDS011;4446;50.876;4.736;2023-04-21T10:08:33;8.00;;;6.00;;
8819;SDS011;4446;50.876;4.736;2023-04-21T10:11:00;8.88;;;5.90;;
8819;SDS011;4446;50.876;4.736;2023-04-21T10:13:30;9.85;;;6.70;;
8819;SDS011;4446;50.876;4.736;2023-04-21T10:16:01;11.40;;;7.20;;
8819;SDS011;4446;50.876;4.736;2023-04-21T10:18:31;9.77;;;5.72;;
8819;SDS011;4446;50.876;4.736;2023-04-21T10:21:01;11.68;;;7.05;;
8819;SDS011;4446;50.876;4.736;2023-04-21T10:23:40;10.50;;;7.25;;
8819;SDS011;4446;50.876;4.736;2023-04-21T10:26:09;8.90;;;6.05;;
8819;SDS011;4446;50.876;4.736;2023-04-21T10:28:45;8.15;;;6.05;;
8819;SDS011;4446;50.876;4.736;2023-04-21T10:31:18;7.97;;;5.40;;
8819;SDS011;4446;50.876;4.736;2023-04-21T10:36:42;7.30;;;5.45;;
8819;SDS011;4446;50.876;4.736;2023-04-21T10:39:32;10.70;;;6.10;;
8819;SDS011;4446;50.876;4.736;2023-04-21T10:44:59;10.25;;;7.00;;
8819;SDS011;4446;50.876;4.736;2023-04-21T10:47:40;9.30;;;6.40;;
8819;SDS011;4446;50.876;4.736;2023-04-21T10:50:16;11.02;;;6.88;;
8819;SDS011;4446;50.876;4.736;2023-04-21T10:52:46;10.75;;;5.90;;
8819;SDS011;4446;50.876;4.736;2023-04-21T10:55:24;11.23;;;7.18;;
8819;SDS011;4446;50.876;4.736;2023-04-21T10:57:52;12.07;;;7.18;;
8819;SDS011;4446;50.876;4.736;2023-04-21T11:00:21;9.82;;;6.72;;
8819;SDS011;4446;50.876;4.736;2023-04-21T11:02:53;10.10;;;6.70;;
8819;SDS011;4446;50.876;4.736;2023-04-21T11:05:26;9.13;;;6.05;;
8819;SDS011;4446;50.876;4.736;2023-04-21T11:08:00;9.63;;;6.35;;
8819;SDS011;4446;50.876;4.736;2023-04-21T11:10:28;8.43;;;6.32;;
8819;SDS011;4446;50.876;4.736;2023-04-21T11:13:06;9.15;;;6.00;;
8819;SDS011;4446;50.876;4.736;2023-04-21T11:15:34;9.55;;;5.97;;
8819;SDS011;4446;50.876;4.736;2023-04-21T11:18:01;8.68;;;6.05;;
8819;SDS011;4446;50.876;4.736;2023-04-21T11:20:29;8.55;;;6.30;;
8819;SDS011;4446;50.876;4.736;2023-04-21T11:22:56;9.15;;;5.75;;
8819;SDS011;4446;50.876;4.736;2023-04-21T11:25:23;7.80;;;5.15;;
8819;SDS011;4446;50.876;4.736;2023-04-21T11:27:53;8.45;;;5.93;;
8819;SDS011;4446;50.876;4.736;2023-04-21T11:30:21;8.60;;;6.38;;
8819;SDS011;4446;50.876;4.736;2023-04-21T11:32:58;8.57;;;6.25;;
8819;SDS011;4446;50.876;4.736;2023-04-21T11:35:25;10.10;;;6.40;;
8819;SDS011;4446;50.876;4.736;2023-04-21T11:37:52;8.85;;;6.13;;
8819;SDS011;4446;50.876;4.736;2023-04-21T11:40:20;7.65;;;5.70;;
8819;SDS011;4446;50.876;4.736;2023-04-21T11:42:47;9.30;;;6.38;;
8819;SDS011;4446;50.876;4.736;2023-04-21T11:45:15;9.82;;;6.78;;
8819;SDS011;4446;50.876;4.736;2023-04-21T11:47:43;10.15;;;6.80;;
8819;SDS011;4446;50.876;4.736;2023-04-21T11:50:16;8.57;;;6.38;;
8819;SDS011;4446;50.876;4.736;2023-04-21T11:52:56;11.10;;;6.45;;
8819;SDS011;4446;50.876;4.736;2023-04-21T11:55:23;10.20;;;7.22;;
8819;SDS011;4446;50.876;4.736;2023-04-21T11:57:50;9.18;;;6.43;;
8819;SDS011;4446;50.876;4.736;2023-04-21T12:00:17;7.75;;;5.70;;
8819;SDS011;4446;50.876;4.736;2023-04-21T12:02:52;7.80;;;5.15;;
8819;SDS011;4446;50.876;4.736;2023-04-21T12:05:22;8.80;;;5.93;;
8819;SDS011;4446;50.876;4.736;2023-04-21T12:07:49;8.48;;;6.03;;
8819;SDS011;4446;50.876;4.736;2023-04-21T12:10:17;9.35;;;6.07;;
8819;SDS011;4446;50.876;4.736;2023-04-21T12:12:45;8.88;;;6.70;;
8819;SDS011;4446;50.876;4.736;2023-04-21T12:15:16;7.75;;;5.85;;
8819;SDS011;4446;50.876;4.736;2023-04-21T12:17:45;9.00;;;6.38;;
8819;SDS011;4446;50.876;4.736;2023-04-21T12:20:14;7.20;;;5.75;;
8819;SDS011;4446;50.876;4.736;2023-04-21T12:22:43;8.32;;;5.53;;
8819;SDS011;4446;50.876;4.736;2023-04-21T12:25:11;7.53;;;5.82;;
8819;SDS011;4446;50.876;4.736;2023-04-21T12:27:46;10.65;;;7.20;;
8819;SDS011;4446;50.876;4.736;2023-04-21T12:30:13;9.13;;;5.88;;
8819;SDS011;4446;50.876;4.736;2023-04-21T12:32:41;8.93;;;6.13;;
8819;SDS011;4446;50.876;4.736;2023-04-21T12:35:08;7.65;;;5.60;;
8819;SDS011;4446;50.876;4.736;2023-04-21T12:37:35;6.50;;;5.32;;
8819;SDS011;4446;50.876;4.736;2023-04-21T12:40:04;7.30;;;5.30;;
8819;SDS011;4446;50.876;4.736;2023-04-21T12:42:33;7.20;;;5.55;;
8819;SDS011;4446;50.876;4.736;2023-04-21T12:45:00;9.07;;;6.15;;
8819;SDS011;4446;50.876;4.736;2023-04-21T12:47:26;7.53;;;5.80;;
8819;SDS011;4446;50.876;4.736;2023-04-21T12:49:54;6.47;;;5.13;;
8819;SDS011;4446;50.876;4.736;2023-04-21T12:52:21;7.35;;;5.13;;
8819;SDS011;4446;50.876;4.736;2023-04-21T12:54:48;7.10;;;4.72;;
8819;SDS011;4446;50.876;4.736;2023-04-21T12:57:16;7.05;;;5.22;;
8819;SDS011;4446;50.876;4.736;2023-04-21T12:59:44;6.00;;;4.57;;
8819;SDS011;4446;50.876;4.736;2023-04-21T13:02:11;6.90;;;4.93;;
8819;SDS011;4446;50.876;4.736;2023-04-21T13:04:38;6.53;;;5.18;;
8819;SDS011;4446;50.876;4.736;2023-04-21T13:07:06;6.63;;;5.32;;
8819;SDS011;4446;50.876;4.736;2023-04-21T13:09:33;7.30;;;4.82;;
8819;SDS011;4446;50.876;4.736;2023-04-21T13:12:00;6.18;;;4.95;;
8819;SDS011;4446;50.876;4.736;2023-04-21T13:14:28;6.65;;;5.07;;
8819;SDS011;4446;50.876;4.736;2023-04-21T13:16:56;5.80;;;4.53;;
8819;SDS011;4446;50.876;4.736;2023-04-21T13:19:23;5.47;;;4.30;;
8819;SDS011;4446;50.876;4.736;2023-04-21T13:21:50;6.60;;;4.13;;
8819;SDS011;4446;50.876;4.736;2023-04-21T13:24:17;6.15;;;4.40;;
8819;SDS011;4446;50.876;4.736;2023-04-21T13:26:44;5.25;;;4.20;;
8819;SDS011;4446;50.876;4.736;2023-04-21T13:29:11;6.13;;;4.32;;
8819;SDS011;4446;50.876;4.736;2023-04-21T13:31:39;5.00;;;3.88;;
8819;SDS011;4446;50.876;4.736;2023-04-21T13:34:06;5.30;;;4.05;;
8819;SDS011;4446;50.876;4.736;2023-04-21T13:36:33;5.55;;;4.05;;
8819;SDS011;4446;50.876;4.736;2023-04-21T13:39:00;6.05;;;4.28;;
8819;SDS011;4446;50.876;4.736;2023-04-21T13:41:28;5.53;;;4.20;;
8819;SDS011;4446;50.876;4.736;2023-04-21T13:43:55;6.40;;;3.75;;
8819;SDS011;4446;50.876;4.736;2023-04-21T13:46:22;5.15;;;4.05;;
8819;SDS011;4446;50.876;4.736;2023-04-21T13:48:51;4.68;;;4.00;;
8819;SDS011;4446;50.876;4.736;2023-04-21T13:51:18;4.72;;;3.90;;
8819;SDS011;4446;50.876;4.736;2023-04-21T13:53:46;6.88;;;4.45;;
8819;SDS011;4446;50.876;4.736;2023-04-21T13:56:13;5.75;;;4.03;;
8819;SDS011;4446;50.876;4.736;2023-04-21T13:58:40;5.10;;;4.18;;
8819;SDS011;4446;50.876;4.736;2023-04-21T14:01:07;4.15;;;3.42;;
8819;SDS011;4446;50.876;4.736;2023-04-21T14:03:34;4.03;;;3.42;;
8819;SDS011;4446;50.876;4.736;2023-04-21T14:06:03;4.63;;;3.83;;
8819;SDS011;4446;50.876;4.736;2023-04-21T14:08:30;5.30;;;3.70;;
8819;SDS011;4446;50.876;4.736;2023-04-21T14:10:59;4.60;;;3.65;;
8819;SDS011;4446;50.876;4.736;2023-04-21T14:13:26;4.82;;;3.72;;
8819;SDS011;4446;50.876;4.736;2023-04-21T14:15:55;5.47;;;4.18;;
8819;SDS011;4446;50.876;4.736;2023-04-21T14:18:22;6.65;;;4.63;;
8819;SDS011;4446;50.876;4.736;2023-04-21T14:20:49;4.95;;;4.03;;
8819;SDS011;4446;50.876;4.736;2023-04-21T14:23:17;4.28;;;3.80;;
8819;SDS011;4446;50.876;4.736;2023-04-21T14:25:44;5.38;;;4.10;;
8819;SDS011;4446;50.876;4.736;2023-04-21T14:28:11;4.75;;;4.00;;
8819;SDS011;4446;50.876;4.736;2023-04-21T14:30:38;4.90;;;4.03;;
8819;SDS011;4446;50.876;4.736;2023-04-21T14:33:07;5.90;;;3.78;;
8819;SDS011;4446;50.876;4.736;2023-04-21T14:35:34;5.00;;;3.35;;
8819;SDS011;4446;50.876;4.736;2023-04-21T14:38:01;4.60;;;4.00;;
8819;SDS011;4446;50.876;4.736;2023-04-21T14:40:30;4.70;;;4.20;;
8819;SDS011;4446;50.876;4.736;2023-04-21T14:42:57;4.50;;;3.88;;
8819;SDS011;4446;50.876;4.736;2023-04-21T14:45:24;5.50;;;4.38;;
8819;SDS011;4446;50.876;4.736;2023-04-21T14:47:51;5.55;;;4.03;;
8819;SDS011;4446;50.876;4.736;2023-04-21T14:50:18;4.38;;;3.88;;
8819;SDS011;4446;50.876;4.736;2023-04-21T14:52:45;4.80;;;4.15;;
8819;SDS011;4446;50.876;4.736;2023-04-21T14:55:13;5.22;;;4.00;;
8819;SDS011;4446;50.876;4.736;2023-04-21T14:57:42;5.10;;;4.05;;
8819;SDS011;4446;50.876;4.736;2023-04-21T15:00:09;5.03;;;4.18;;
8819;SDS011;4446;50.876;4.736;2023-04-21T15:02:37;4.82;;;3.92;;
8819;SDS011;4446;50.876;4.736;2023-04-21T15:05:05;5.60;;;4.60;;
8819;SDS011;4446;50.876;4.736;2023-04-21T15:07:33;6.10;;;4.70;;
8819;SDS011;4446;50.876;4.736;2023-04-21T15:10:00;4.90;;;3.88;;
8819;SDS011;4446;50.876;4.736;2023-04-21T15:12:27;4.40;;;3.70;;